createdAt,value
2023-03-13T00:01:35.251Z,518.95
2023-03-13T00:04:03.997Z,518.40
2023-03-13T00:06:34.632Z,514.63
2023-03-13T00:09:03.944Z,519.60
2023-03-13T00:11:32.565Z,534.03
2023-03-13T00:14:03.540Z,520.30
2023-03-13T00:16:34.645Z,519.55
2023-03-13T00:19:04.771Z,514.53
2023-03-13T00:21:33.527Z,527.03
2023-03-13T00:24:02.674Z,510.80
2023-03-13T00:26:31.356Z,484.13
2023-03-13T00:28:59.995Z,510.10
2023-03-13T00:31:31.972Z,509.05
2023-03-13T00:34:03.456Z,514.30
2023-03-13T00:36:34.232Z,501.48
2023-03-13T00:39:03.771Z,519.03
2023-03-13T00:41:33.628Z,457.30
2023-03-13T00:44:02.569Z,449.85
2023-03-13T00:46:31.836Z,465.23
2023-03-13T00:49:00.751Z,468.08
2023-03-13T00:51:36.939Z,454.30
2023-03-13T00:54:05.739Z,453.30
2023-03-13T00:56:34.390Z,461.15
2023-03-13T00:59:03.048Z,431.05
2023-03-13T01:01:33.764Z,430.38
2023-03-13T01:04:04.014Z,402.70
2023-03-13T01:06:35.542Z,457.35
2023-03-13T01:09:05.384Z,412.05
2023-03-13T01:11:36.415Z,445.75
2023-03-13T01:14:07.510Z,431.50
2023-03-13T01:16:40.173Z,386.25
2023-03-13T01:19:13.145Z,382.80
2023-03-13T01:21:44.823Z,374.63
2023-03-13T01:24:13.573Z,400.85
2023-03-13T01:26:44.130Z,375.83
2023-03-13T01:29:12.926Z,395.98
2023-03-13T01:31:41.624Z,351.60
2023-03-13T01:34:11.492Z,382.13
2023-03-13T01:36:40.303Z,344.50
2023-03-13T01:39:10.138Z,431.63
2023-03-13T01:41:39.336Z,362.95
2023-03-13T01:44:10.521Z,332.90
2023-03-13T01:46:38.997Z,330.27
2023-03-13T01:49:10.425Z,321.48
2023-03-13T01:51:40.432Z,332.65
2023-03-13T01:54:13.337Z,328.20
2023-03-13T01:56:49.370Z,310.23
2023-03-13T01:59:21.337Z,304.05
2023-03-13T02:01:52.995Z,336.98
2023-03-13T02:04:23.233Z,295.40
2023-03-13T02:06:55.192Z,365.67
2023-03-13T02:09:27.517Z,304.08
2023-03-13T02:12:01.148Z,297.80
2023-03-13T02:14:31.502Z,291.17
2023-03-13T02:17:00.197Z,304.20
2023-03-13T02:19:32.010Z,293.75
2023-03-13T02:22:06.970Z,286.20
2023-03-13T02:24:42.102Z,287.73
2023-03-13T02:27:12.159Z,288.25
2023-03-13T02:29:40.964Z,295.80
2023-03-13T02:32:09.667Z,309.38
2023-03-13T02:34:40.746Z,290.95
2023-03-13T02:37:12.874Z,297.65
2023-03-13T02:39:45.887Z,314.55
2023-03-13T02:42:16.960Z,298.95
2023-03-13T02:44:46.873Z,293.50
2023-03-13T02:47:19.786Z,334.92
2023-03-13T02:49:48.307Z,298.65
2023-03-13T02:52:20.193Z,309.33
2023-03-13T02:54:52.276Z,287.40
2023-03-13T02:57:22.090Z,301.13
2023-03-13T02:59:52.988Z,345.83
2023-03-13T03:02:21.434Z,360.98
2023-03-13T03:04:49.997Z,294.17
2023-03-13T03:07:18.541Z,294.58
2023-03-13T03:09:47.023Z,310.80
2023-03-13T03:12:15.718Z,305.15
2023-03-13T03:14:45.619Z,302.65
2023-03-13T03:17:14.196Z,319.45
2023-03-13T03:19:42.794Z,300.73
2023-03-13T03:22:11.314Z,304.70
2023-03-13T03:24:40.181Z,307.88
2023-03-13T03:27:08.666Z,337.30
2023-03-13T03:29:37.410Z,298.35
2023-03-13T03:32:07.650Z,330.48
2023-03-13T03:34:36.358Z,361.40
2023-03-13T03:37:05.000Z,396.10
2023-03-13T03:39:33.588Z,350.00
2023-03-13T03:42:02.101Z,396.95
2023-03-13T03:44:30.789Z,371.63
2023-03-13T03:46:59.620Z,341.17
2023-03-13T03:49:29.726Z,328.80
2023-03-13T03:51:58.211Z,383.23
2023-03-13T03:54:26.973Z,444.70
2023-03-13T03:56:57.408Z,454.90
2023-03-13T03:59:25.972Z,473.10
2023-03-13T04:01:54.635Z,517.70
2023-03-13T04:04:23.188Z,520.88
2023-03-13T04:06:53.114Z,521.03
2023-03-13T04:09:21.813Z,535.35
2023-03-13T04:11:50.387Z,454.92
2023-03-13T04:14:21.009Z,497.27
2023-03-13T04:16:52.102Z,498.08
2023-03-13T04:19:20.850Z,540.90
2023-03-13T04:21:49.454Z,533.25
2023-03-13T04:24:19.498Z,506.02
2023-03-13T04:26:47.986Z,539.33
2023-03-13T04:29:16.439Z,540.00
2023-03-13T04:31:46.872Z,559.78
2023-03-13T04:34:15.412Z,564.50
2023-03-13T04:36:47.049Z,530.35
2023-03-13T04:39:15.510Z,579.30
2023-03-13T04:41:46.708Z,523.60
2023-03-13T04:44:15.353Z,496.33
2023-03-13T04:46:43.944Z,543.28
2023-03-13T04:49:12.675Z,573.88
2023-03-13T04:51:41.198Z,549.20
2023-03-13T04:54:12.273Z,583.35
2023-03-13T04:56:44.211Z,531.03
2023-03-13T04:59:15.853Z,571.92
2023-03-13T05:01:44.651Z,566.10
2023-03-13T05:04:13.291Z,567.50
2023-03-13T05:06:41.671Z,577.60
2023-03-13T05:09:10.041Z,576.35
2023-03-13T05:11:40.245Z,555.47
2023-03-13T05:14:10.819Z,628.60
2023-03-13T05:16:41.640Z,598.45
2023-03-13T05:19:18.885Z,509.23
2023-03-13T05:21:57.326Z,577.38
2023-03-13T05:24:25.794Z,587.45
2023-03-13T05:26:55.263Z,568.67
2023-03-13T05:29:25.853Z,612.65
2023-03-13T05:32:08.643Z,565.58
2023-03-13T05:34:46.946Z,567.05
2023-03-13T05:37:18.213Z,577.17
2023-03-13T05:39:50.297Z,565.38
2023-03-13T05:42:18.752Z,595.55
2023-03-13T05:44:47.070Z,593.20
2023-03-13T05:47:17.309Z,581.30
2023-03-13T05:49:45.842Z,573.45
2023-03-13T05:52:14.402Z,550.10
2023-03-13T05:54:42.712Z,608.72
2023-03-13T05:57:11.118Z,552.47
2023-03-13T05:59:39.975Z,652.30
2023-03-13T06:02:08.404Z,736.40
2023-03-13T06:04:38.523Z,548.70
2023-03-13T06:07:07.092Z,545.53
2023-03-13T06:09:35.575Z,618.42
2023-03-13T06:12:03.997Z,602.38
2023-03-13T06:14:32.309Z,545.97
2023-03-13T06:17:00.745Z,635.88
2023-03-13T06:19:29.194Z,543.58
2023-03-13T06:21:58.953Z,530.78
2023-03-13T06:24:27.381Z,502.60
2023-03-13T06:26:55.703Z,547.42
2023-03-13T06:29:24.641Z,563.40
2023-03-13T06:31:53.410Z,536.38
2023-03-13T06:34:21.944Z,507.05
2023-03-13T06:36:50.309Z,542.17
2023-03-13T06:39:20.056Z,461.05
2023-03-13T06:41:48.367Z,603.42
2023-03-13T06:44:16.839Z,578.35
2023-03-13T06:46:45.256Z,546.90
2023-03-13T06:49:13.855Z,471.20
2023-03-13T06:51:42.374Z,452.08
2023-03-13T06:54:10.814Z,664.95
2023-03-13T06:56:40.559Z,417.08
2023-03-13T06:59:08.981Z,471.02
2023-03-13T07:01:37.389Z,483.33
2023-03-13T07:04:05.786Z,675.33
2023-03-13T07:06:34.562Z,496.10
2023-03-13T07:09:03.003Z,453.20
2023-03-13T07:11:31.494Z,458.95
2023-03-13T07:14:15.679Z,460.13
2023-03-13T07:16:45.432Z,481.00
2023-03-13T07:19:14.324Z,659.05
2023-03-13T07:21:42.827Z,475.30
2023-03-13T07:24:11.365Z,462.60
2023-03-13T07:26:42.569Z,416.08
2023-03-13T07:29:18.456Z,548.22
2023-03-13T07:31:46.904Z,397.90
2023-03-13T07:34:15.378Z,463.23
2023-03-13T07:36:43.843Z,446.38
2023-03-13T07:39:12.887Z,554.55
2023-03-13T07:41:42.132Z,619.10
2023-03-13T07:44:10.627Z,579.95
2023-03-13T07:46:40.922Z,497.60
2023-03-13T07:49:09.265Z,543.22
2023-03-13T07:51:43.849Z,533.25
2023-03-13T07:54:12.803Z,574.78
2023-03-13T07:56:41.233Z,523.30
2023-03-13T07:59:09.752Z,455.13
2023-03-13T08:01:39.721Z,503.67
2023-03-13T08:04:08.133Z,496.42
2023-03-13T08:06:37.396Z,473.85
2023-03-13T08:09:06.780Z,452.55
2023-03-13T08:11:35.621Z,440.08
2023-03-13T08:14:04.039Z,449.55
2023-03-13T08:16:34.889Z,457.42
2023-03-13T08:19:06.259Z,694.45
2023-03-13T08:21:36.164Z,731.53
2023-03-13T08:24:07.084Z,540.70
2023-03-13T08:26:36.820Z,559.58
2023-03-13T08:29:07.314Z,586.85
2023-03-13T08:31:37.611Z,610.30
2023-03-13T08:34:07.423Z,602.95
2023-03-13T08:36:36.834Z,541.05
2023-03-13T08:39:06.781Z,546.05
2023-03-13T08:41:37.035Z,556.13
2023-03-13T08:44:06.212Z,602.35
2023-03-13T08:46:36.355Z,614.63
2023-03-13T08:49:07.397Z,659.60
2023-03-13T08:51:36.505Z,568.53
2023-03-13T08:54:05.972Z,577.63
2023-03-13T08:56:35.037Z,574.95
2023-03-13T08:59:05.150Z,512.30
2023-03-13T09:01:35.245Z,532.75
2023-03-13T09:04:04.775Z,528.38
2023-03-13T09:06:35.151Z,603.90
2023-03-13T09:09:05.375Z,579.00
2023-03-13T09:11:33.819Z,577.78
2023-03-13T09:14:02.796Z,546.78
2023-03-13T09:16:32.173Z,510.73
2023-03-13T09:19:01.084Z,535.55
2023-03-13T09:21:30.729Z,604.63
2023-03-13T09:24:00.768Z,516.20
2023-03-13T09:26:29.605Z,688.75
2023-03-13T09:28:58.065Z,675.13
2023-03-13T09:31:29.808Z,657.88
2023-03-13T09:33:58.721Z,621.65
2023-03-13T09:36:27.353Z,594.00
2023-03-13T09:38:57.425Z,491.70
2023-03-13T09:41:31.282Z,522.25
2023-03-13T09:44:03.552Z,480.90
2023-03-13T09:46:38.362Z,553.95
2023-03-13T09:49:13.390Z,541.28
2023-03-13T09:51:43.155Z,547.08
2023-03-13T09:54:19.773Z,612.88
2023-03-13T09:56:53.752Z,538.38
2023-03-13T09:59:25.929Z,499.35
2023-03-13T10:01:56.014Z,531.63
2023-03-13T10:04:32.123Z,446.88
2023-03-13T10:07:00.606Z,473.45
2023-03-13T10:09:32.102Z,491.23
2023-03-13T10:12:08.126Z,512.50
2023-03-13T10:14:44.315Z,420.80
2023-03-13T10:17:21.359Z,511.83
2023-03-13T10:19:54.687Z,452.13
2023-03-13T10:22:26.595Z,544.95
2023-03-13T10:24:58.288Z,572.70
2023-03-13T10:27:28.434Z,695.65
2023-03-13T10:29:56.800Z,571.03
2023-03-13T10:32:25.281Z,532.47
2023-03-13T10:35:00.421Z,509.20
2023-03-13T10:37:31.320Z,495.20
2023-03-13T10:40:15.328Z,636.00
2023-03-13T10:42:46.780Z,553.67
2023-03-13T10:45:18.194Z,517.05
2023-03-13T10:47:46.749Z,526.95
2023-03-13T10:50:20.445Z,537.92
2023-03-13T10:52:50.346Z,539.65
2023-03-13T10:55:20.209Z,458.45
2023-03-13T10:57:58.803Z,463.73
2023-03-13T11:00:34.578Z,551.05
2023-03-13T11:03:04.363Z,508.25
2023-03-13T11:05:39.631Z,517.13
2023-03-13T11:08:23.595Z,580.10
2023-03-13T11:11:00.189Z,543.92
2023-03-13T11:13:37.681Z,541.35
2023-03-13T11:16:20.873Z,460.77
2023-03-13T11:19:13.854Z,430.00
2023-03-13T11:21:49.610Z,493.13
2023-03-13T11:24:21.263Z,453.42
2023-03-13T11:27:04.657Z,546.15
2023-03-13T11:29:40.147Z,632.20
2023-03-13T11:32:18.672Z,594.15
2023-03-13T11:34:51.986Z,531.72
2023-03-13T11:37:21.283Z,679.00
2023-03-13T11:39:56.578Z,546.35
2023-03-13T11:42:42.402Z,611.90
2023-03-13T11:45:23.265Z,547.47
2023-03-13T11:47:58.125Z,586.40
2023-03-13T11:50:38.653Z,547.35
2023-03-13T11:53:28.715Z,551.60
2023-03-13T11:56:06.294Z,540.97
2023-03-13T11:59:02.452Z,635.13
2023-03-13T12:01:47.635Z,427.67
2023-03-13T12:04:21.654Z,415.58
2023-03-13T12:06:54.819Z,507.60
2023-03-13T12:09:29.060Z,513.10
2023-03-13T12:12:26.480Z,529.40
2023-03-13T12:15:05.787Z,481.58
2023-03-13T12:17:37.258Z,502.13
2023-03-13T12:20:15.777Z,553.00
2023-03-13T12:22:54.415Z,500.05
2023-03-13T12:25:33.905Z,530.47
2023-03-13T12:28:17.770Z,579.05
2023-03-13T12:31:10.231Z,493.98
2023-03-13T12:33:44.073Z,505.95
2023-03-13T12:36:27.967Z,447.98
2023-03-13T12:38:59.498Z,441.40
2023-03-13T12:41:31.218Z,562.30
2023-03-13T12:44:08.885Z,494.98
2023-03-13T12:46:41.822Z,645.17
2023-03-13T12:49:38.445Z,504.48
2023-03-13T12:52:36.956Z,508.48
2023-03-13T12:55:45.739Z,507.73
2023-03-13T12:58:38.829Z,443.88
2023-03-13T13:01:08.782Z,469.35
2023-03-13T13:03:42.331Z,569.30
2023-03-13T13:06:14.352Z,462.17
2023-03-13T13:08:48.413Z,528.92
2023-03-13T13:11:55.121Z,452.25
2023-03-13T13:14:58.093Z,457.77
2023-03-13T13:17:56.031Z,496.70
2023-03-13T13:20:32.598Z,488.88
2023-03-13T13:23:27.825Z,473.55
2023-03-13T13:25:57.139Z,500.02
2023-03-13T13:28:37.588Z,499.33
2023-03-13T13:31:45.818Z,515.72
2023-03-13T13:34:56.878Z,512.60
2023-03-13T13:37:30.111Z,474.65
2023-03-13T13:40:21.113Z,527.70
2023-03-13T13:42:51.689Z,540.72
2023-03-13T13:45:33.622Z,483.75
2023-03-13T13:48:25.680Z,503.65
2023-03-13T13:51:33.812Z,473.52
2023-03-13T13:54:03.251Z,489.10
2023-03-13T13:56:41.096Z,484.10
2023-03-13T13:59:26.957Z,663.55
2023-03-13T14:02:19.461Z,499.65
2023-03-13T14:04:51.380Z,498.67
2023-03-13T14:07:22.151Z,482.38
2023-03-13T14:09:56.179Z,497.15
2023-03-13T14:12:30.607Z,545.75
2023-03-13T14:15:19.197Z,480.95
2023-03-13T14:17:49.979Z,520.38
2023-03-13T14:20:27.840Z,567.90
2023-03-13T14:22:58.897Z,526.20
2023-03-13T14:25:30.250Z,529.95
2023-03-13T14:27:59.923Z,480.58
2023-03-13T14:30:28.220Z,510.55
2023-03-13T14:32:56.675Z,478.42
2023-03-13T14:35:25.101Z,472.67
2023-03-13T14:37:54.413Z,492.83
2023-03-13T14:40:26.234Z,508.55
2023-03-13T14:42:56.644Z,500.75
2023-03-13T14:45:29.526Z,531.20
2023-03-13T14:48:03.209Z,506.08
2023-03-13T14:50:31.584Z,489.33
2023-03-13T14:53:03.972Z,486.33
2023-03-13T14:55:40.268Z,479.58
2023-03-13T14:58:28.070Z,480.23
2023-03-13T15:00:59.492Z,494.45
2023-03-13T15:03:33.008Z,493.00
2023-03-13T15:06:16.254Z,514.47
2023-03-13T15:08:46.205Z,648.00
2023-03-13T15:11:23.351Z,509.95
2023-03-13T15:13:51.700Z,478.40
2023-03-13T15:16:24.136Z,496.27
2023-03-13T15:18:53.328Z,502.92
2023-03-13T15:21:25.136Z,569.90
2023-03-13T15:23:55.577Z,543.45
2023-03-13T15:26:24.777Z,503.40
2023-03-13T15:28:53.282Z,513.15
2023-03-13T15:31:26.457Z,508.52
2023-03-13T15:33:57.845Z,470.48
2023-03-13T15:36:26.667Z,508.38
2023-03-13T15:38:55.413Z,663.30
2023-03-13T15:41:26.542Z,683.13
2023-03-13T15:43:56.893Z,501.05
2023-03-13T15:46:27.434Z,482.55
2023-03-13T15:48:55.933Z,491.98
2023-03-13T15:51:24.249Z,571.70
2023-03-13T15:53:53.455Z,530.97
2023-03-13T15:56:23.818Z,703.45
2023-03-13T15:58:52.340Z,521.60
2023-03-13T16:01:22.983Z,555.47
2023-03-13T16:03:52.913Z,593.85
2023-03-13T16:06:32.186Z,501.83
2023-03-13T16:09:01.401Z,551.22
2023-03-13T16:11:30.860Z,650.92
2023-03-13T16:13:59.235Z,545.33
2023-03-13T16:16:29.597Z,591.25
2023-03-13T16:19:00.595Z,563.88
2023-03-13T16:21:32.103Z,558.65
2023-03-13T16:24:07.948Z,519.53
2023-03-13T16:27:25.260Z,625.83
2023-03-13T16:29:53.775Z,553.90
2023-03-13T16:32:24.642Z,590.78
2023-03-13T16:34:54.478Z,544.75
2023-03-13T16:37:23.124Z,572.80
2023-03-13T16:39:51.717Z,607.03
2023-03-13T16:42:24.595Z,679.50
2023-03-13T16:44:53.048Z,621.30
2023-03-13T16:47:26.866Z,646.90
2023-03-13T16:49:56.804Z,664.28
2023-03-13T16:52:25.212Z,638.85
2023-03-13T16:54:56.740Z,666.00
2023-03-13T16:57:28.938Z,680.90
2023-03-13T16:59:57.301Z,675.70
2023-03-13T17:02:25.847Z,663.50
2023-03-13T17:04:55.578Z,669.50
2023-03-13T17:07:26.721Z,774.55
2023-03-13T17:09:55.421Z,718.05
2023-03-13T17:12:24.568Z,656.03
2023-03-13T17:14:52.948Z,625.75
2023-03-13T17:17:23.093Z,728.25
2023-03-13T17:19:51.499Z,833.50
2023-03-13T17:22:21.229Z,707.80
2023-03-13T17:24:49.745Z,725.40
2023-03-13T17:27:19.675Z,689.72
2023-03-13T17:29:48.096Z,705.42
2023-03-13T17:32:16.841Z,797.25
2023-03-13T17:34:45.255Z,857.85
2023-03-13T17:37:18.457Z,703.63
2023-03-13T17:39:48.997Z,741.08
2023-03-13T17:42:17.379Z,671.55
2023-03-13T17:44:45.912Z,747.20
2023-03-13T17:47:53.074Z,765.17
2023-03-13T17:58:01.705Z,719.95
2023-03-13T18:01:42.972Z,693.88
2023-03-13T18:08:01.383Z,663.70
2023-03-13T18:10:37.107Z,657.17
2023-03-13T18:13:39.834Z,709.83
2023-03-13T18:16:18.828Z,680.85
2023-03-13T18:18:50.973Z,773.38
2023-03-13T18:21:22.102Z,710.28
2023-03-13T18:23:53.465Z,681.42
2023-03-13T18:26:28.306Z,850.63
2023-03-13T18:29:00.478Z,715.03
2023-03-13T18:31:30.112Z,714.35
2023-03-13T18:33:59.950Z,679.60
2023-03-13T18:36:29.763Z,712.97
2023-03-13T18:38:59.173Z,720.25
2023-03-13T18:41:27.930Z,749.28
2023-03-13T18:43:57.870Z,740.30
2023-03-13T18:46:29.953Z,788.17
2023-03-13T18:49:03.256Z,767.08
2023-03-13T18:51:33.396Z,869.92
2023-03-13T18:54:02.040Z,728.80
2023-03-13T18:56:32.295Z,686.03
2023-03-13T18:59:02.201Z,686.10
2023-03-13T19:01:33.012Z,725.50
2023-03-13T19:04:01.627Z,699.05
2023-03-13T19:06:32.819Z,698.72
2023-03-13T19:09:03.266Z,704.85
2023-03-13T19:11:33.554Z,701.08
2023-03-13T19:14:06.851Z,700.97
2023-03-13T19:16:41.520Z,730.08
2023-03-13T19:19:15.448Z,720.92
2023-03-13T19:21:45.645Z,713.00
2023-03-13T19:24:16.024Z,810.63
2023-03-13T19:26:46.836Z,716.38
2023-03-13T19:29:22.690Z,717.80
2023-03-13T19:31:54.608Z,738.53
2023-03-13T19:34:28.190Z,742.72
2023-03-13T19:36:57.295Z,715.00
2023-03-13T19:39:28.271Z,737.92
2023-03-13T19:42:07.381Z,714.88
2023-03-13T19:44:52.633Z,726.58
2023-03-13T19:47:22.016Z,692.55
2023-03-13T19:49:54.692Z,687.72
2023-03-13T19:52:23.674Z,709.38
2023-03-13T19:58:22.204Z,760.75
2023-03-13T20:01:38.048Z,735.30
2023-03-13T20:06:51.662Z,703.97
2023-03-13T20:09:21.899Z,682.75
2023-03-13T20:13:30.328Z,726.55
2023-03-13T20:20:08.021Z,725.25
2023-03-13T20:23:14.819Z,829.95
2023-03-13T20:30:18.962Z,709.10
2023-03-13T21:03:46.478Z,733.65
2023-03-13T21:06:24.106Z,677.97
2023-03-13T21:09:01.709Z,689.20
2023-03-13T21:11:39.710Z,678.05
2023-03-13T21:14:29.832Z,682.28
2023-03-13T21:17:08.541Z,676.42
2023-03-13T21:19:46.434Z,694.05
2023-03-13T21:22:35.278Z,685.97
2023-03-13T21:25:16.911Z,680.22
2023-03-13T21:27:49.567Z,695.25
2023-03-13T21:30:25.896Z,695.67
2023-03-13T21:33:02.361Z,684.58
2023-03-13T21:36:00.097Z,681.08
2023-03-13T21:38:43.170Z,674.33
2023-03-13T21:41:15.112Z,688.17
2023-03-13T21:43:49.708Z,687.92
2023-03-13T21:46:34.074Z,681.50
2023-03-13T21:49:13.578Z,670.95
2023-03-13T21:52:01.536Z,686.25
2023-03-13T21:54:42.573Z,680.28
2023-03-13T21:57:17.746Z,695.13
2023-03-13T21:59:51.596Z,684.63
2023-03-13T22:02:24.364Z,702.00
2023-03-13T22:04:56.810Z,718.00
2023-03-13T22:07:32.599Z,704.47
2023-03-13T22:10:04.077Z,685.50
2023-03-13T22:12:33.242Z,685.97
2023-03-13T22:15:02.246Z,689.53
2023-03-13T22:17:31.244Z,687.90
2023-03-13T22:20:00.274Z,683.65
2023-03-13T22:22:31.675Z,696.53
2023-03-13T22:25:03.223Z,675.67
2023-03-13T22:27:32.197Z,693.78
2023-03-13T22:30:01.121Z,690.72
2023-03-13T22:32:30.331Z,709.05
2023-03-13T22:34:59.101Z,692.38
2023-03-13T22:37:31.697Z,700.95
2023-03-13T22:40:00.510Z,661.58
2023-03-13T22:42:29.618Z,679.55
2023-03-13T22:44:58.635Z,703.53
2023-03-13T22:47:27.672Z,662.80
2023-03-13T22:49:57.729Z,689.10
2023-03-13T22:52:30.790Z,706.50
2023-03-13T22:55:01.176Z,666.60
2023-03-13T22:57:32.310Z,685.58
2023-03-13T23:00:00.806Z,683.38
2023-03-13T23:02:29.447Z,680.13
2023-03-13T23:05:00.377Z,683.42
2023-03-13T23:07:30.199Z,662.80
2023-03-13T23:10:00.437Z,683.42
2023-03-13T23:12:30.856Z,676.97
2023-03-13T23:15:00.492Z,662.72
2023-03-13T23:17:30.886Z,669.97
2023-03-13T23:20:01.504Z,698.63
2023-03-13T23:22:33.017Z,702.95
2023-03-13T23:25:02.980Z,710.22
2023-03-13T23:27:31.775Z,670.40
2023-03-13T23:30:01.918Z,650.90
2023-03-13T23:32:36.128Z,672.92
2023-03-13T23:35:04.704Z,706.70
2023-03-13T23:37:34.165Z,684.63
2023-03-13T23:40:05.535Z,665.67
2023-03-13T23:42:34.092Z,694.90
2023-03-13T23:45:02.550Z,714.20
2023-03-13T23:47:31.701Z,654.92
2023-03-13T23:50:00.112Z,667.58
2023-03-13T23:52:28.961Z,675.35
2023-03-13T23:54:57.787Z,693.78
2023-03-13T23:57:27.763Z,699.75
2023-03-13T23:59:56.263Z,690.47
